Carlinville, IL (62626)

3:41 AM CST op 12 februari 2016 (GMT -0600)
The Bluffs Subdivision, Carlinville | | Change Station
CLOSE
Current Station
Persoonlijk weerstation
Location: Carlinville, IL
Geometrische hoogte: 600 ft
Nabije weerstations

Hoogte 600 ft 39.27 °N, 89.89 °W | Updated 6 seconds ago

Sneeuw
Sneeuw
23.4 °F
Voelt als 23 °F
N
0.2
Wind Variabel Wind van zuid
Gusts 1.6 mijl/u

Vandaag
Hoog -- | Laag -- °F
--% Kans op neerslag
Gisteren
Hoog -- | Laag -- °F
Precip. -- inches
Druk 30.22 inches
Zicht 2.5 mijlen
Wolken Licht bewolkt 900 ft
Merendeels bewolkt 1500 ft
Geheel bewolkt 3900 ft
Gevoelstemperatuur 23 °F
Dauwpunt 16 °F
Vochtigheid 72%
Neerslag 0.00 inches
Dikte sneeuw Niet beschikbaar.
6:55 AM 5:32 PM
Wassende halvemaan, 19% visible
METAR K3LF 120935Z AUTO 00000KT 2 1/2SM -SN SCT009 BKN015 OVC039 M05/M08 A3022 RMK AO2 T10531076
Druk 30.22 inches
Zicht 2.5 mijlen
Wolken Licht bewolkt 900 ft
Merendeels bewolkt 1500 ft
Geheel bewolkt 3900 ft
Gevoelstemperatuur 23 °F
Dauwpunt 16 °F
Vochtigheid 72%
Neerslag 0.00 inches
Dikte sneeuw Niet beschikbaar.
6:55 AM 5:32 PM
Wassende halvemaan, 19% visible
METAR K3LF 120935Z AUTO 00000KT 2 1/2SM -SN SCT009 BKN015 OVC039 M05/M08 A3022 RMK AO2 T10531076

10-Day Weather Forecast

Almanac

Astronomie

Feb. 12, 2016 Opkomst Ondergang
Werkelijke tijd
Burgerlijke schemering
Nautische schemering
Astronomische schemering
Maan
Golflengte van het zichtbare licht
Daglengte
Tomorrow will be .
, % of the Moon is Illuminated

Extremen vandaag

State Highs State Lows

Community

WunderPhotos

Upload Photos

1,892,286 foto’s ge-upload!

WunderBlog® & News

Nearby

Luchtkwaliteit

  Luchtkwaliteit LK-index Verontreinigende stof
Not available.

Dikte sneeuw

Station Depth Geometrische hoogte

Aardbevingen

Stad Distance Mag. Time & Date
Minimum magnitude displayed is 2.5.

Watertemperatuur langs de kust

Plaats Temperatuur

Stations

Nabije weerstations

Locatie station Temp. Gevoelstemperatuur Dauwpunt Vochtigheid Wind Precip. Hoogte Geactualiseerd Type
                   

Watches & Warnings

There are currently no watches in effect.